createdAt,value
2019-02-05T09:37:46.092Z,13.75
2019-02-05T09:40:24.230Z,10.75
2019-02-05T09:42:54.746Z,8.71
2019-02-05T09:45:25.470Z,8.42
2019-02-05T09:47:56.156Z,7.69
2019-02-05T09:50:26.915Z,6.98
2019-02-05T09:52:57.483Z,6.41
2019-02-05T09:55:27.900Z,6.04
2019-02-05T09:57:58.432Z,5.87
2019-02-05T10:00:31.728Z,5.78
2019-02-05T10:03:02.562Z,5.68
2019-02-05T10:05:36.444Z,5.99
2019-02-05T10:08:07.013Z,5.91
2019-02-05T10:10:37.441Z,5.48
2019-02-05T10:13:08.276Z,5.26
2019-02-05T10:15:41.201Z,5.19
2019-02-05T10:18:13.238Z,5.35
2019-02-05T10:20:43.858Z,5.34
2019-02-05T10:23:14.290Z,5.35
2019-02-05T10:25:44.825Z,5.50
2019-02-05T10:28:15.216Z,5.64
2019-02-05T10:30:46.078Z,5.90
2019-02-05T10:33:16.494Z,5.77
2019-02-05T10:35:46.984Z,5.49
2019-02-05T10:38:17.594Z,5.55
2019-02-05T10:40:48.102Z,5.85
2019-02-05T10:43:18.565Z,5.60
2019-02-05T10:45:49.267Z,5.57
2019-02-05T10:48:19.736Z,5.93
2019-02-05T10:50:50.226Z,5.97
2019-02-05T10:53:20.629Z,6.04
2019-02-05T10:55:51.112Z,5.93
2019-02-05T10:58:21.617Z,5.95
2019-02-05T11:00:52.350Z,5.90
2019-02-05T11:03:22.779Z,5.98
2019-02-05T11:05:53.216Z,5.66
2019-02-05T11:08:23.598Z,5.64
2019-02-05T11:10:54.120Z,5.64
2019-02-05T11:13:24.602Z,5.79
2019-02-05T11:15:55.223Z,5.41
2019-02-05T11:18:25.624Z,5.46
2019-02-05T11:20:56.381Z,5.53
2019-02-05T11:23:26.818Z,5.63
2019-02-05T11:25:57.248Z,5.37
2019-02-05T11:28:28.796Z,5.17
2019-02-05T11:30:59.391Z,5.26
2019-02-05T11:33:29.961Z,4.93
2019-02-05T11:36:00.390Z,5.17
2019-02-05T11:38:30.823Z,5.22
2019-02-05T11:41:01.351Z,4.92
2019-02-05T11:43:31.884Z,4.61
2019-02-05T11:46:02.303Z,4.37
2019-02-05T11:48:32.944Z,4.39
2019-02-05T11:51:03.362Z,4.12
2019-02-05T11:53:40.306Z,4.14
2019-02-05T11:56:12.483Z,3.92
2019-02-05T11:58:44.660Z,3.89
2019-02-05T12:01:17.409Z,3.94
2019-02-05T12:03:47.819Z,3.91
2019-02-05T12:06:18.334Z,4.11
2019-02-05T12:08:48.742Z,4.17
2019-02-05T12:11:21.979Z,4.01
2019-02-05T12:13:52.789Z,4.08
2019-02-05T12:16:23.418Z,4.11
2019-02-05T12:18:53.838Z,4.15
2019-02-05T12:21:24.385Z,4.13
2019-02-05T12:23:54.845Z,4.11
2019-02-05T12:26:25.245Z,3.98
2019-02-05T12:28:55.720Z,3.92
2019-02-05T12:31:26.198Z,4.06
2019-02-05T12:33:56.727Z,4.18
2019-02-05T12:36:27.121Z,4.19
2019-02-05T12:38:57.522Z,4.22
2019-02-05T12:41:27.923Z,4.20
2019-02-05T12:43:59.816Z,4.24
2019-02-05T12:46:30.446Z,4.05
2019-02-05T12:49:00.834Z,4.11
2019-02-05T12:51:31.335Z,4.12
2019-02-05T12:54:02.074Z,4.00
2019-02-05T12:56:32.865Z,3.95
2019-02-05T12:59:03.439Z,3.94
2019-02-05T13:01:34.071Z,4.11
2019-02-05T13:04:05.621Z,4.18
2019-02-05T13:06:36.056Z,4.17
2019-02-05T13:09:07.888Z,4.19
2019-02-05T13:11:39.673Z,4.14
2019-02-05T13:14:10.200Z,4.14
2019-02-05T13:16:40.602Z,4.08
2019-02-05T13:19:11.193Z,3.90
2019-02-05T13:21:41.695Z,3.83
2019-02-05T13:24:12.090Z,3.89
2019-02-05T13:26:42.549Z,3.76
2019-02-05T13:29:13.285Z,3.73
2019-02-05T13:31:43.818Z,3.67
2019-02-05T13:34:14.250Z,3.82
2019-02-05T13:36:45.187Z,3.93
2019-02-05T13:39:15.716Z,3.91
2019-02-05T13:41:46.457Z,3.96
2019-02-05T13:44:17.084Z,3.95
2019-02-05T13:46:47.516Z,3.95
2019-02-05T13:49:18.245Z,3.91
2019-02-05T13:51:48.678Z,3.83
2019-02-05T13:54:19.238Z,3.86
2019-02-05T13:56:49.738Z,3.85
2019-02-05T13:59:20.173Z,3.70
2019-02-05T14:01:50.703Z,3.72
2019-02-05T14:04:21.427Z,3.72
2019-02-05T14:06:52.173Z,3.70
2019-02-05T14:09:22.699Z,3.80
2019-02-05T14:11:53.130Z,3.87
2019-02-05T14:14:23.660Z,4.00
2019-02-05T14:16:54.191Z,4.05
2019-02-05T14:19:24.611Z,4.07
2019-02-05T14:21:55.011Z,4.15
2019-02-05T14:24:25.575Z,4.00
2019-02-05T14:26:56.007Z,3.93
2019-02-05T14:29:26.535Z,3.71
2019-02-05T14:31:57.263Z,3.67
2019-02-05T14:34:27.696Z,3.78
2019-02-05T14:36:58.408Z,3.83
2019-02-05T14:39:28.965Z,3.63
2019-02-05T14:41:59.368Z,3.70
2019-02-05T14:44:29.765Z,3.70
2019-02-05T14:47:00.168Z,3.58
2019-02-05T14:49:30.571Z,3.62
2019-02-05T14:52:01.248Z,3.58
2019-02-05T14:54:31.735Z,3.53
2019-02-05T14:57:02.166Z,3.51
2019-02-05T14:59:33.004Z,3.42
2019-02-05T15:02:03.398Z,3.38
2019-02-05T15:04:33.854Z,3.27
2019-02-05T15:07:04.286Z,3.24
2019-02-05T15:09:34.718Z,3.25
2019-02-05T15:12:05.556Z,3.37
2019-02-05T15:14:35.951Z,3.47
2019-02-05T15:17:06.348Z,3.52
2019-02-05T15:19:37.247Z,3.53
2019-02-05T15:22:07.763Z,3.32
2019-02-05T15:24:40.921Z,3.37
2019-02-05T15:27:10.376Z,3.45
2019-02-05T15:29:42.346Z,3.40
2019-02-05T15:32:14.416Z,3.49
2019-02-05T15:34:45.350Z,3.55
2019-02-05T15:37:17.304Z,3.43
2019-02-05T15:39:47.885Z,3.31
2019-02-05T15:42:19.834Z,3.28
2019-02-05T15:44:50.752Z,3.20
2019-02-05T15:47:21.281Z,3.19
2019-02-05T15:49:51.908Z,3.11
2019-02-05T15:52:22.340Z,2.98
2019-02-05T15:54:52.815Z,2.97
2019-02-05T15:57:23.293Z,2.88
2019-02-05T15:59:53.823Z,2.87
2019-02-05T16:02:24.263Z,2.87
2019-02-05T16:04:55.193Z,2.91
2019-02-05T16:07:28.707Z,2.96
2019-02-05T16:09:57.747Z,2.84
2019-02-05T16:12:28.245Z,2.83
2019-02-05T16:14:59.006Z,2.88
2019-02-05T16:17:29.430Z,2.78
2019-02-05T16:20:00.002Z,2.81
2019-02-05T16:22:30.495Z,2.82
2019-02-05T16:25:01.965Z,2.81
2019-02-05T16:27:32.401Z,2.75
2019-02-05T16:30:06.181Z,2.76
2019-02-05T16:32:36.840Z,2.76
2019-02-05T16:35:08.162Z,2.79
2019-02-05T16:37:38.722Z,2.84
2019-02-05T16:40:17.913Z,2.87
2019-02-05T16:42:49.593Z,2.88
2019-02-05T16:45:22.745Z,2.79
2019-02-05T16:47:57.949Z,2.77
2019-02-05T16:50:46.896Z,2.81
2019-02-05T16:53:17.476Z,2.77
2019-02-05T16:55:48.070Z,2.70
2019-02-05T16:58:19.594Z,2.69
2019-02-05T17:00:50.030Z,2.69
2019-02-05T17:03:20.425Z,2.66
2019-02-05T17:05:51.105Z,2.69
2019-02-05T17:08:22.131Z,2.74
2019-02-05T17:10:53.822Z,2.72
2019-02-05T17:13:24.222Z,2.67
2019-02-05T17:15:54.626Z,2.67
2019-02-05T17:18:25.115Z,2.77
2019-02-05T17:20:55.519Z,2.81
2019-02-05T17:23:26.020Z,2.76
2019-02-05T17:25:57.548Z,2.72
2019-02-05T17:28:28.313Z,2.68
2019-02-05T17:30:58.892Z,2.63
2019-02-05T17:33:29.756Z,2.68
2019-02-05T17:36:00.156Z,2.70
2019-02-05T17:38:30.637Z,2.72
2019-02-05T17:41:01.152Z,2.72
2019-02-05T17:43:31.567Z,2.70
2019-02-05T17:46:02.458Z,2.63
2019-02-05T17:48:32.940Z,2.68
2019-02-05T17:51:03.474Z,2.63
2019-02-05T17:53:33.860Z,2.64
2019-02-05T17:56:04.642Z,2.59
2019-02-05T17:58:35.048Z,2.63
2019-02-05T18:01:07.369Z,2.64
2019-02-05T18:03:37.770Z,2.59
2019-02-05T18:06:08.303Z,2.58
2019-02-05T18:08:38.832Z,2.55
2019-02-05T18:11:09.252Z,2.58
2019-02-05T18:13:39.894Z,2.65
2019-02-05T18:16:10.561Z,2.61
2019-02-05T18:18:41.061Z,2.66
2019-02-05T18:21:11.523Z,2.72
2019-02-05T18:23:41.924Z,2.64
2019-02-05T18:26:12.336Z,2.77
2019-02-05T18:28:42.735Z,2.75
2019-02-05T18:31:13.189Z,2.82
2019-02-05T18:33:43.585Z,2.70
2019-02-05T18:36:14.373Z,2.73
2019-02-05T18:38:45.092Z,2.70
2019-02-05T18:41:16.235Z,2.75
2019-02-05T18:43:47.382Z,2.81
2019-02-05T18:46:17.774Z,2.79
2019-02-05T18:48:48.205Z,2.84
2019-02-05T18:51:18.574Z,2.75
2019-02-05T18:53:48.957Z,2.75
2019-02-05T18:56:22.237Z,2.78
2019-02-05T18:58:52.905Z,2.82
2019-02-05T19:01:23.364Z,2.87
2019-02-05T19:03:53.819Z,2.79
2019-02-05T19:06:24.483Z,2.79
2019-02-05T19:08:55.253Z,2.87
2019-02-05T19:11:25.645Z,2.92
2019-02-05T19:13:56.208Z,2.97
2019-02-05T19:16:26.771Z,2.87
2019-02-05T19:18:57.105Z,3.00
2019-02-05T19:21:27.598Z,2.94
2019-02-05T19:24:00.784Z,2.95
2019-02-05T19:26:31.732Z,2.97
2019-02-05T19:29:02.264Z,2.99
2019-02-05T19:31:34.456Z,3.00
2019-02-05T19:34:04.960Z,3.00
2019-02-05T19:36:35.392Z,3.05
2019-02-05T19:39:07.347Z,3.11
2019-02-05T19:41:38.704Z,3.17
2019-02-05T19:44:09.159Z,3.06
2019-02-05T19:46:48.270Z,2.97
2019-02-05T19:49:22.088Z,3.06
2019-02-05T19:51:52.806Z,3.07
2019-02-05T19:54:24.051Z,3.14
2019-02-05T19:56:54.479Z,3.05
2019-02-05T19:59:25.318Z,3.04
2019-02-05T20:01:56.061Z,3.09
2019-02-05T20:04:26.896Z,3.03
2019-02-05T20:06:57.315Z,2.98
2019-02-05T20:09:27.748Z,3.00
2019-02-05T20:11:58.285Z,3.02
2019-02-05T20:14:28.689Z,2.94
2019-02-05T20:16:59.134Z,2.97
2019-02-05T20:19:29.563Z,2.93
2019-02-05T20:21:59.996Z,2.87
2019-02-05T20:24:30.456Z,2.96
2019-02-05T20:27:00.913Z,2.94
2019-02-05T20:29:31.481Z,3.06
